»·PEaware :: N46299 L88-KSBP

N46299 :: L88-KSBP

FLIGHT INFORMATION

Flight Status: Arrived
Operator: Privately registered:
United States
More flights under this callsign
Pilot: Victor C. (32144)
Aircraft: CESSNA 172 SKYHAWK
(C172)
More flights by this aircraft type
Origin: L88 New Cuyama
United States
Destination: KSBP San Luis Co Regl
United States
More flights between these airports :: More routes between these airports
Route: L88 DCT KSBP
File this flight plan on PilotEdge
Remarks:
Altitude:
(Current/Filed)
6,500ft
Speed:
(Current/Filed)
110kts
Departed: 28-Oct-20 08:05 AM
Arrived: 28-Oct-20 09:03 AM
Distance/Time
Traveled:
50nm/0:58
Distance/Time
To Go:
Arrived

Flight Plot

Page will automatically refresh every two minutes.

Flight plan parsing failed; only flown route is shown


Map Options




Map Legend


Flown Route
Filed Route
Departure Airport
Arrival Airport
Navaid (VOR, NDB)
Fix

Horizontal Profiles

Position Reports

Time Latitude Longitude Heading Altitude Ground
Speed
28-Oct-20 07:56 34.943888 -119.690815 201 2206ft 1kts
28-Oct-20 07:57 34.942774 -119.691142 198 2206ft 8kts
28-Oct-20 07:58 34.942656 -119.691190 199 2206ft 0kts
28-Oct-20 07:59 34.942656 -119.691190 199 2206ft 0kts
28-Oct-20 08:00 34.942656 -119.691190 199 2206ft 0kts
28-Oct-20 08:01 34.942656 -119.691190 199 2206ft 0kts
28-Oct-20 08:02 34.942656 -119.691190 199 2206ft 0kts
28-Oct-20 08:03 34.942608 -119.691209 196 2206ft 1kts
28-Oct-20 08:04 34.940800 -119.687630 116 2206ft 69kts
28-Oct-20 08:05 34.926365 -119.666391 194 2992ft 93kts
28-Oct-20 08:06 34.920008 -119.689624 292 3910ft 87kts
28-Oct-20 08:07 34.927560 -119.717040 289 4761ft 85kts
28-Oct-20 08:08 34.936859 -119.743942 300 5476ft 87kts
28-Oct-20 08:09 34.951818 -119.767184 313 6238ft 88kts
28-Oct-20 08:10 34.971812 -119.787014 315 6732ft 98kts
28-Oct-20 08:11 34.984022 -119.816794 293 6904ft 97kts
28-Oct-20 08:12 34.994906 -119.846557 297 6757ft 98kts
28-Oct-20 08:13 35.006003 -119.878524 288 6570ft 100kts
28-Oct-20 08:14 35.014732 -119.910276 289 6505ft 93kts
28-Oct-20 08:15 35.023007 -119.939221 290 6508ft 88kts
28-Oct-20 08:16 35.031447 -119.967371 291 6508ft 87kts
28-Oct-20 08:17 35.039874 -119.995025 291 6508ft 87kts
28-Oct-20 08:18 35.048337 -120.022553 289 6506ft 86kts
28-Oct-20 08:19 35.056705 -120.049793 289 6505ft 84kts
28-Oct-20 08:20 35.064895 -120.076581 288 6503ft 83kts
28-Oct-20 08:21 35.073296 -120.104855 288 6508ft 98kts
28-Oct-20 08:22 35.083319 -120.137940 289 6500ft 107kts
28-Oct-20 08:23 35.093964 -120.172609 289 6496ft 109kts
28-Oct-20 08:24 35.104553 -120.207085 289 6493ft 109kts
28-Oct-20 08:25 35.115263 -120.241993 289 6490ft 109kts
28-Oct-20 08:26 35.125568 -120.275612 289 6485ft 97kts
28-Oct-20 08:27 35.134609 -120.305171 289 6488ft 89kts
28-Oct-20 08:28 35.142965 -120.332513 289 6488ft 83kts
28-Oct-20 08:30 35.151354 -120.360023 289 6497ft 94kts
28-Oct-20 08:31 35.160905 -120.391429 288 6458ft 94kts
28-Oct-20 08:32 35.168786 -120.423424 286 5558ft 97kts
28-Oct-20 08:33 35.178260 -120.455098 291 4613ft 101kts
28-Oct-20 08:34 35.188366 -120.486671 289 3697ft 101kts
28-Oct-20 08:35 35.196453 -120.518260 314 2903ft 91kts
28-Oct-20 08:36 35.198584 -120.508439 174 2668ft 69kts
28-Oct-20 08:37 35.191765 -120.518016 292 2393ft 77kts
28-Oct-20 08:38 35.200648 -120.543492 296 2127ft 83kts
28-Oct-20 08:39 35.210375 -120.567474 289 1941ft 80kts
28-Oct-20 08:55 35.172458 -120.453412 293 4637ft 92kts
28-Oct-20 08:56 35.181417 -120.484040 277 4293ft 100kts
28-Oct-20 08:57 35.185292 -120.517859 282 3418ft 98kts
28-Oct-20 08:58 35.192652 -120.549833 292 2468ft 104kts
28-Oct-20 08:59 35.204525 -120.579781 300 1645ft 91kts
28-Oct-20 09:00 35.216349 -120.604255 305 1015ft 80kts
28-Oct-20 09:01 35.228292 -120.625068 306 511ft 71kts
28-Oct-20 09:02 35.237497 -120.641143 306 214ft 17kts
28-Oct-20 09:03 35.239991 -120.643529 128 214ft 7kts
28-Oct-20 09:04 35.237879 -120.639843 121 214ft 11kts
28-Oct-20 09:05 35.238038 -120.636720 325 214ft 2kts
28-Oct-20 09:06 35.238097 -120.637710 273 214ft 0kts
28-Oct-20 09:07 35.238097 -120.637710 273 214ft 0kts
28-Oct-20 09:08 35.238097 -120.637710 273 214ft 0kts

Navigation Log

Ident Type
Flight plan parsing failed, navigation log unavailable